Time;durP1;ratioP1;P1;durP2;ratioP2;P2;SDS_P1;SDS_P2;PMS_P1;PMS_P2;Temp;Humidity;BMP_temperature;BMP_pressure;BME280_temperature;BME280_humidity;BME280_pressure;Samples;Min_cycle;Max_cycle;Signal;HPM_P1;HPM_P2
2023/01/18 00:02:04;;;;;;;7.57;3.83;;;1.10;99.90;;;;;;5071685;28;20201;-66
2023/01/18 00:04:31;;;;;;;5.57;3.37;;;1.10;99.90;;;;;;5058167;28;20207;-66
2023/01/18 00:06:57;;;;;;;5.83;3.47;;;1.20;99.90;;;;;;5044451;28;20208;-66
2023/01/18 00:09:24;;;;;;;4.10;3.43;;;1.10;99.90;;;;;;5066007;28;20213;-66
2023/01/18 00:11:51;;;;;;;10.47;3.20;;;1.10;99.90;;;;;;5057085;28;20241;-66
2023/01/18 00:14:18;;;;;;;5.30;3.17;;;1.10;99.90;;;;;;5023929;28;20203;-65
2023/01/18 00:16:45;;;;;;;4.90;2.93;;;1.10;99.90;;;;;;5074998;28;20230;-66
2023/01/18 00:19:13;;;;;;;6.10;2.70;;;1.20;99.90;;;;;;5068477;28;21543;-66
2023/01/18 00:21:40;;;;;;;7.03;2.67;;;1.10;99.90;;;;;;5038146;28;20203;-66
2023/01/18 00:24:13;;;;;;;4.93;2.83;;;1.20;99.90;;;;;;5062774;28;20247;-66
2023/01/18 00:26:42;;;;;;;5.40;2.70;;;1.20;99.90;;;;;;5067883;28;20240;-65
2023/01/18 00:29:09;;;;;;;3.87;2.60;;;1.20;99.90;;;;;;5054939;28;21499;-65
2023/01/18 00:31:37;;;;;;;7.00;2.90;;;1.20;99.90;;;;;;5066055;28;20655;-65
2023/01/18 00:34:04;;;;;;;7.00;3.17;;;1.20;99.90;;;;;;5069735;28;20233;-65
2023/01/18 00:36:32;;;;;;;4.00;2.83;;;1.10;99.90;;;;;;5060192;28;22883;-66
2023/01/18 00:38:59;;;;;;;6.57;3.20;;;1.10;99.90;;;;;;5042693;28;20212;-65
2023/01/18 00:41:26;;;;;;;4.20;2.70;;;1.10;99.90;;;;;;5012644;28;20213;-65
2023/01/18 00:43:52;;;;;;;3.83;3.30;;;1.00;99.90;;;;;;5052188;28;20211;-66
2023/01/18 00:46:21;;;;;;;6.53;3.20;;;1.10;99.90;;;;;;5070488;28;20204;-66
2023/01/18 00:48:48;;;;;;;3.73;3.20;;;1.00;99.90;;;;;;5066308;28;20225;-65
2023/01/18 00:51:17;;;;;;;3.33;2.80;;;0.90;99.90;;;;;;5072147;28;20227;-65
2023/01/18 00:53:46;;;;;;;6.03;3.23;;;1.00;99.90;;;;;;5030231;28;20227;-66
2023/01/18 00:56:14;;;;;;;4.37;3.10;;;1.00;99.90;;;;;;5067133;28;20195;-65
2023/01/18 00:58:41;;;;;;;3.53;2.70;;;1.00;99.90;;;;;;5050725;28;20301;-65
2023/01/18 01:01:09;;;;;;;4.10;3.10;;;1.00;99.90;;;;;;5066633;28;20199;-65
2023/01/18 01:09:06;;;;;;;6.13;3.50;;;0.90;99.90;;;;;;5031241;28;20196;-65
2023/01/18 01:11:33;;;;;;;5.00;2.70;;;0.90;99.90;;;;;;5064208;28;20313;-66
2023/01/18 01:27:42;;;;;;;5.60;2.63;;;0.80;99.90;;;;;;5067103;28;20211;-65
2023/01/18 01:30:10;;;;;;;6.60;2.90;;;0.80;99.90;;;;;;5052149;28;20216;-65
2023/01/18 01:32:37;;;;;;;5.37;2.90;;;0.90;99.90;;;;;;5065738;28;20451;-65
2023/01/18 01:35:04;;;;;;;3.40;2.80;;;0.90;99.90;;;;;;5053641;28;20724;-65
2023/01/18 01:37:31;;;;;;;3.80;2.73;;;0.90;99.90;;;;;;5065741;28;20197;-65
2023/01/18 01:39:59;;;;;;;3.90;2.80;;;0.90;99.90;;;;;;5043027;28;20247;-65
2023/01/18 01:42:26;;;;;;;5.07;2.93;;;0.80;99.90;;;;;;5066553;28;20199;-66
2023/01/18 01:44:54;;;;;;;6.27;2.80;;;0.70;99.90;;;;;;5050953;28;20205;-65
2023/01/18 01:47:34;;;;;;;3.33;2.90;;;0.70;99.90;;;;;;5064886;28;20200;-65
2023/01/18 01:50:07;;;;;;;4.10;2.73;;;0.60;99.90;;;;;;5057075;28;20213;-65
2023/01/18 01:52:38;;;;;;;3.60;2.80;;;0.60;99.90;;;;;;5052886;28;20236;-65
2023/01/18 01:55:13;;;;;;;7.03;2.77;;;0.60;99.90;;;;;;5034782;28;20232;-65
2023/01/18 01:57:44;;;;;;;5.30;3.00;;;0.60;99.90;;;;;;5060863;28;20498;-66
2023/01/18 02:00:15;;;;;;;3.20;2.63;;;0.60;99.90;;;;;;5040727;28;20205;-65
2023/01/18 02:02:45;;;;;;;5.33;2.77;;;0.50;99.90;;;;;;5047343;28;20209;-65
2023/01/18 02:05:15;;;;;;;3.00;2.63;;;0.50;99.90;;;;;;5062275;28;20209;-65
2023/01/18 02:07:42;;;;;;;4.13;2.80;;;0.50;99.90;;;;;;5062819;28;20208;-65
2023/01/18 02:10:11;;;;;;;3.97;2.77;;;0.50;99.90;;;;;;5060765;28;20205;-66
2023/01/18 02:12:40;;;;;;;5.53;3.30;;;0.50;99.90;;;;;;5052424;28;20308;-65
2023/01/18 02:15:08;;;;;;;4.17;3.20;;;0.50;99.90;;;;;;5044710;28;20206;-65
2023/01/18 02:17:52;;;;;;;4.67;2.73;;;0.50;99.90;;;;;;5058477;28;20681;-65
2023/01/18 02:20:48;;;;;;;4.20;3.27;;;0.40;99.90;;;;;;5066872;28;20196;-65
2023/01/18 02:24:11;;;;;;;5.13;3.40;;;0.40;99.90;;;;;;5060121;28;21015;-66
2023/01/18 02:26:57;;;;;;;3.63;2.90;;;0.30;99.90;;;;;;5035530;28;20204;-66
2023/01/18 02:29:39;;;;;;;4.50;3.13;;;0.30;99.90;;;;;;5043013;28;20216;-66
2023/01/18 02:32:17;;;;;;;4.23;3.20;;;0.20;99.90;;;;;;5038996;28;20227;-65
2023/01/18 02:34:49;;;;;;;9.67;3.87;;;0.30;99.90;;;;;;5061056;28;20222;-65
2023/01/18 02:37:26;;;;;;;4.80;3.53;;;0.30;99.90;;;;;;5063432;28;20209;-65
2023/01/18 02:40:04;;;;;;;3.93;3.13;;;0.30;99.90;;;;;;5057154;28;20205;-65
2023/01/18 02:48:10;;;;;;;5.37;3.73;;;0.30;99.90;;;;;;5064367;28;20253;-65
2023/01/18 02:50:37;;;;;;;5.77;3.63;;;0.30;99.90;;;;;;5050634;28;20202;-66
2023/01/18 02:53:04;;;;;;;8.17;3.63;;;0.20;99.90;;;;;;5064829;28;20236;-65
2023/01/18 02:55:43;;;;;;;6.57;3.97;;;0.20;99.90;;;;;;5068216;28;20213;-66
2023/01/18 02:58:17;;;;;;;5.43;3.50;;;0.20;99.90;;;;;;5036237;28;20196;-65
2023/01/18 03:00:51;;;;;;;7.43;3.50;;;0.20;99.90;;;;;;5065551;28;20211;-66
2023/01/18 03:03:20;;;;;;;6.00;3.37;;;0.20;99.90;;;;;;5047372;28;20224;-65
2023/01/18 03:05:48;;;;;;;6.87;4.20;;;0.10;99.90;;;;;;5054138;28;20213;-65
2023/01/18 03:08:20;;;;;;;5.50;3.90;;;0.20;99.90;;;;;;5069081;28;20207;-65
2023/01/18 03:10:55;;;;;;;4.83;3.50;;;0.20;99.90;;;;;;5054633;28;20205;-65
2023/01/18 03:13:29;;;;;;;5.57;3.87;;;0.20;99.90;;;;;;5042606;28;20780;-65
2023/01/18 03:16:05;;;;;;;9.70;4.07;;;0.20;99.90;;;;;;5064319;28;20211;-65
2023/01/18 03:18:38;;;;;;;6.50;3.57;;;0.20;99.90;;;;;;5047007;28;20199;-65
2023/01/18 03:21:07;;;;;;;5.70;3.83;;;0.20;99.90;;;;;;5062344;28;20209;-65
2023/01/18 03:23:37;;;;;;;4.93;3.87;;;0.10;99.90;;;;;;5063052;28;20228;-65
2023/01/18 03:26:06;;;;;;;4.70;3.87;;;0.10;99.90;;;;;;5057340;28;20674;-65
2023/01/18 03:34:20;;;;;;;6.23;3.77;;;0.20;99.90;;;;;;5047862;28;20989;-65
2023/01/18 03:36:51;;;;;;;4.83;3.80;;;0.20;99.90;;;;;;5047631;28;20213;-65
2023/01/18 03:39:22;;;;;;;7.63;3.63;;;0.10;99.90;;;;;;5074600;28;20688;-65
2023/01/18 03:41:53;;;;;;;5.23;3.93;;;0.10;99.90;;;;;;5056905;28;20204;-66
2023/01/18 03:44:25;;;;;;;11.00;4.10;;;0.10;99.90;;;;;;5048778;28;20199;-65
2023/01/18 03:46:55;;;;;;;5.70;3.87;;;0.10;99.90;;;;;;5059355;28;20228;-66
2023/01/18 03:49:23;;;;;;;5.60;3.80;;;0.20;99.90;;;;;;5056532;28;20285;-65
2023/01/18 03:52:06;;;;;;;6.20;3.87;;;0.10;99.90;;;;;;5044249;28;21502;-65
2023/01/18 03:54:37;;;;;;;5.70;4.50;;;0.10;99.90;;;;;;5069305;28;20214;-65
2023/01/18 03:57:10;;;;;;;5.20;3.77;;;0.10;99.90;;;;;;5062903;28;20208;-65
2023/01/18 03:59:39;;;;;;;7.10;4.10;;;0.10;99.90;;;;;;5048059;28;22463;-65
2023/01/18 04:02:08;;;;;;;6.50;3.63;;;0.10;99.90;;;;;;5064115;28;20212;-65
2023/01/18 04:04:35;;;;;;;5.73;4.13;;;0.00;99.90;;;;;;5054053;28;20223;-65
2023/01/18 04:07:02;;;;;;;5.67;3.80;;;0.10;99.90;;;;;;5057154;28;21079;-65
2023/01/18 04:09:29;;;;;;;10.50;3.80;;;0.00;99.90;;;;;;5064462;28;20200;-65
2023/01/18 04:11:56;;;;;;;7.03;4.07;;;0.00;99.90;;;;;;5062863;28;20294;-65
2023/01/18 04:14:23;;;;;;;5.07;3.73;;;-0.10;99.90;;;;;;5053246;28;20211;-65
2023/01/18 04:16:50;;;;;;;4.83;3.60;;;-0.10;99.90;;;;;;5035093;28;20234;-65
2023/01/18 04:19:18;;;;;;;8.30;3.73;;;-0.10;99.90;;;;;;5053105;28;21228;-65
2023/01/18 04:21:45;;;;;;;5.20;3.90;;;-0.10;99.90;;;;;;5065134;28;20221;-65
2023/01/18 04:24:12;;;;;;;7.10;4.33;;;-0.10;99.90;;;;;;5054860;28;20289;-65
2023/01/18 04:26:38;;;;;;;5.67;4.10;;;-0.20;99.90;;;;;;5065923;28;20205;-65
2023/01/18 04:29:05;;;;;;;5.60;4.13;;;-0.20;99.90;;;;;;5057738;28;21144;-66
2023/01/18 04:31:32;;;;;;;6.60;4.00;;;-0.10;99.90;;;;;;5028601;28;20202;-65
2023/01/18 04:33:59;;;;;;;4.77;3.70;;;0.00;99.90;;;;;;5069340;28;20239;-64
2023/01/18 04:36:28;;;;;;;13.87;4.53;;;-0.10;99.90;;;;;;5051448;28;20630;-65
2023/01/18 04:38:56;;;;;;;8.87;5.00;;;0.00;99.90;;;;;;5047664;28;20209;-64
2023/01/18 04:41:23;;;;;;;6.50;4.23;;;0.00;99.90;;;;;;5058154;28;20253;-65
2023/01/18 04:43:50;;;;;;;5.90;4.33;;;0.00;99.90;;;;;;5048947;28;20219;-65
2023/01/18 04:46:17;;;;;;;5.93;4.47;;;0.00;99.90;;;;;;5025348;28;20219;-65
2023/01/18 04:48:44;;;;;;;5.60;3.80;;;-0.30;99.90;;;;;;5054018;28;20207;-65
2023/01/18 04:51:14;;;;;;;6.27;4.20;;;-0.10;99.90;;;;;;5045311;28;20201;-64
2023/01/18 04:53:43;;;;;;;5.67;4.53;;;-0.10;99.90;;;;;;5051194;28;20234;-65
2023/01/18 04:56:10;;;;;;;5.40;4.13;;;-0.10;99.90;;;;;;5048628;28;20559;-64
2023/01/18 04:58:37;;;;;;;5.93;4.60;;;0.00;99.90;;;;;;5050740;28;20209;-65
2023/01/18 05:01:08;;;;;;;6.53;4.10;;;0.00;99.90;;;;;;5060520;28;20201;-64
2023/01/18 05:03:36;;;;;;;6.87;4.73;;;0.00;99.90;;;;;;5041071;28;20229;-65
2023/01/18 05:06:05;;;;;;;5.60;4.33;;;0.00;99.90;;;;;;5052021;28;20310;-64
2023/01/18 05:08:32;;;;;;;5.57;3.93;;;-0.10;99.90;;;;;;5052004;28;20211;-65
2023/01/18 05:11:05;;;;;;;4.77;3.90;;;-0.10;99.90;;;;;;5058618;28;20215;-66
2023/01/18 05:13:32;;;;;;;7.57;4.10;;;0.00;99.90;;;;;;5059384;28;20224;-65
2023/01/18 05:15:59;;;;;;;7.97;4.20;;;-0.10;99.90;;;;;;5048158;28;20212;-66
2023/01/18 05:18:26;;;;;;;5.07;4.13;;;0.00;99.90;;;;;;5034057;28;20206;-65
2023/01/18 05:20:53;;;;;;;6.20;4.37;;;-0.10;99.90;;;;;;5051406;28;20218;-65
2023/01/18 05:23:20;;;;;;;8.70;4.47;;;-0.10;99.90;;;;;;5062228;28;20224;-65
2023/01/18 05:25:52;;;;;;;5.53;4.60;;;0.00;99.90;;;;;;5054250;28;20226;-65
2023/01/18 05:28:21;;;;;;;5.70;4.53;;;0.00;99.90;;;;;;5058256;28;20221;-66
2023/01/18 05:30:48;;;;;;;5.70;4.37;;;-0.10;99.90;;;;;;5041314;28;20260;-66
2023/01/18 05:33:16;;;;;;;7.43;5.03;;;0.00;99.90;;;;;;5049428;28;20234;-66
2023/01/18 05:35:48;;;;;;;6.83;4.50;;;-0.10;99.90;;;;;;5046296;28;20638;-66
2023/01/18 05:38:15;;;;;;;7.10;4.80;;;-0.10;99.90;;;;;;5053280;28;20224;-65
2023/01/18 05:40:43;;;;;;;6.37;4.63;;;0.00;99.90;;;;;;5050499;28;20258;-66
2023/01/18 05:43:10;;;;;;;6.23;4.57;;;-0.10;99.90;;;;;;5044528;28;20210;-65
2023/01/18 05:45:38;;;;;;;6.93;4.83;;;0.00;99.90;;;;;;5044503;28;20228;-65
2023/01/18 05:48:05;;;;;;;8.00;4.93;;;-0.10;99.90;;;;;;5053056;28;20926;-66
2023/01/18 05:50:35;;;;;;;7.50;4.87;;;-0.10;99.90;;;;;;5031082;28;20246;-65
2023/01/18 05:53:02;;;;;;;6.67;4.70;;;-0.10;99.90;;;;;;5050214;28;20223;-66
2023/01/18 05:55:28;;;;;;;8.77;5.03;;;-0.10;99.90;;;;;;5056711;28;20224;-65
2023/01/18 05:57:55;;;;;;;6.27;4.97;;;-0.10;99.90;;;;;;5044733;28;20482;-65
2023/01/18 06:00:23;;;;;;;5.80;4.50;;;-0.10;99.90;;;;;;5054521;28;20220;-66
2023/01/18 06:02:53;;;;;;;5.83;4.90;;;-0.10;99.90;;;;;;5064111;28;20233;-66
2023/01/18 06:05:19;;;;;;;8.03;5.07;;;-0.10;99.90;;;;;;5036223;28;20296;-65
2023/01/18 06:07:47;;;;;;;11.97;5.27;;;-0.10;99.90;;;;;;5033118;28;20235;-66
2023/01/18 06:10:15;;;;;;;10.10;5.30;;;-0.10;99.90;;;;;;5062612;28;20310;-66
2023/01/18 06:12:42;;;;;;;10.97;5.40;;;-0.20;99.90;;;;;;5046889;28;20229;-66
2023/01/18 06:15:10;;;;;;;7.20;5.20;;;-0.10;99.90;;;;;;5066555;28;20227;-66
2023/01/18 06:17:37;;;;;;;6.13;5.07;;;-0.10;99.90;;;;;;5068721;28;20204;-71
2023/01/18 06:20:07;;;;;;;10.23;5.40;;;0.60;99.90;;;;;;5043692;28;26652;-66
2023/01/18 06:22:33;;;;;;;6.13;4.93;;;-0.10;99.90;;;;;;5055643;28;20244;-65
2023/01/18 06:25:00;;;;;;;9.07;5.80;;;-0.10;99.90;;;;;;5070374;28;20225;-65
2023/01/18 06:27:27;;;;;;;7.57;4.87;;;-0.20;99.90;;;;;;5071299;28;20207;-66
2023/01/18 06:29:54;;;;;;;7.07;5.30;;;-0.20;99.90;;;;;;5067098;28;20192;-65
2023/01/18 06:32:21;;;;;;;7.60;5.40;;;-0.20;99.90;;;;;;5073469;28;20193;-66
2023/01/18 06:34:48;;;;;;;15.77;5.60;;;-0.20;99.90;;;;;;5067942;28;20260;-65
2023/01/18 06:37:16;;;;;;;7.40;5.73;;;-0.20;99.90;;;;;;5031689;28;20207;-65
2023/01/18 06:39:43;;;;;;;11.83;6.27;;;-0.20;99.90;;;;;;5075209;28;20237;-65
2023/01/18 06:42:10;;;;;;;8.27;5.67;;;-0.20;99.90;;;;;;5075082;28;20202;-65
2023/01/18 06:44:36;;;;;;;9.93;5.53;;;-0.20;99.90;;;;;;5074387;28;20209;-65
2023/01/18 06:47:03;;;;;;;7.87;5.43;;;-0.20;99.90;;;;;;5073409;28;20196;-65
2023/01/18 06:49:30;;;;;;;6.80;5.47;;;-0.30;99.90;;;;;;5076754;28;20197;-65
2023/01/18 06:51:57;;;;;;;10.67;5.93;;;-0.30;99.90;;;;;;5035609;28;20211;-66
2023/01/18 06:54:25;;;;;;;10.13;6.47;;;-0.40;99.90;;;;;;5070991;28;20746;-65
2023/01/18 06:56:52;;;;;;;10.20;5.97;;;-0.30;99.90;;;;;;5069461;28;20239;-65
2023/01/18 06:59:18;;;;;;;15.90;6.90;;;-0.30;99.90;;;;;;5076426;28;21631;-65
2023/01/18 07:01:46;;;;;;;9.57;6.13;;;-0.30;99.90;;;;;;5069264;28;20203;-65
2023/01/18 07:04:13;;;;;;;7.77;5.60;;;-0.30;99.90;;;;;;5061093;28;20208;-65
2023/01/18 07:06:40;;;;;;;7.30;5.23;;;-0.30;99.90;;;;;;5041643;28;21076;-65
2023/01/18 07:09:08;;;;;;;7.20;5.30;;;-0.20;99.90;;;;;;5039272;28;20208;-65
2023/01/18 07:11:36;;;;;;;7.33;5.43;;;-0.30;99.90;;;;;;5066903;28;20196;-64
2023/01/18 07:14:03;;;;;;;8.87;4.87;;;-0.30;99.90;;;;;;5063833;28;20297;-65
2023/01/18 07:16:31;;;;;;;9.67;5.90;;;-0.10;99.90;;;;;;5069388;28;20204;-65
2023/01/18 07:19:00;;;;;;;9.00;5.23;;;-0.10;99.90;;;;;;5073093;28;20226;-65
2023/01/18 07:21:28;;;;;;;11.03;5.50;;;-0.20;99.90;;;;;;5072133;28;20217;-65
2023/01/18 07:23:56;;;;;;;7.83;5.60;;;-0.20;99.90;;;;;;5040247;28;20307;-65
2023/01/18 07:26:23;;;;;;;10.27;6.10;;;-0.40;99.90;;;;;;5072669;28;20202;-65
2023/01/18 07:28:53;;;;;;;9.13;5.67;;;-0.30;99.90;;;;;;5060308;28;20730;-65
2023/01/18 07:31:22;;;;;;;11.30;5.57;;;-0.30;99.90;;;;;;5074540;28;20203;-65
2023/01/18 07:33:49;;;;;;;8.03;5.57;;;-0.50;99.90;;;;;;5072199;28;20229;-66
2023/01/18 07:36:16;;;;;;;6.53;5.23;;;-0.50;99.90;;;;;;5064716;28;20236;-65
2023/01/18 07:38:43;;;;;;;12.43;5.93;;;-0.50;99.90;;;;;;5042258;28;20213;-65
2023/01/18 07:41:13;;;;;;;9.43;6.10;;;-0.40;99.90;;;;;;5067020;28;20210;-65
2023/01/18 07:43:41;;;;;;;10.60;6.23;;;-0.50;99.90;;;;;;5060963;28;20207;-65
2023/01/18 07:46:12;;;;;;;9.13;5.80;;;-0.50;99.90;;;;;;5079747;28;20253;-65
2023/01/18 07:48:39;;;;;;;10.23;6.77;;;-0.50;99.90;;;;;;5069425;28;20197;-65
2023/01/18 07:51:08;;;;;;;9.63;6.13;;;-0.50;99.90;;;;;;5067755;28;20203;-65
2023/01/18 07:53:36;;;;;;;9.37;6.40;;;-0.50;99.90;;;;;;5063145;28;20320;-65
2023/01/18 07:56:05;;;;;;;15.53;6.50;;;-0.40;99.90;;;;;;5041756;28;20213;-65
2023/01/18 07:58:32;;;;;;;13.83;6.83;;;-0.40;99.90;;;;;;5061646;28;20188;-65
2023/01/18 08:01:03;;;;;;;10.93;6.40;;;-0.30;99.90;;;;;;5072677;28;20201;-65
2023/01/18 08:03:31;;;;;;;10.30;6.83;;;-0.40;99.90;;;;;;5069411;28;20201;-65
2023/01/18 08:05:59;;;;;;;10.07;6.13;;;-0.40;99.90;;;;;;5072260;28;20213;-65
2023/01/18 08:08:27;;;;;;;8.60;5.70;;;-0.40;99.90;;;;;;5067768;28;20201;-65
2023/01/18 08:10:54;;;;;;;9.40;6.53;;;-0.40;99.90;;;;;;5044874;28;20781;-65
2023/01/18 08:13:22;;;;;;;11.97;6.80;;;-0.40;99.90;;;;;;5074328;28;20201;-65
2023/01/18 08:15:48;;;;;;;11.80;5.83;;;-0.50;99.90;;;;;;5043651;28;20202;-65
2023/01/18 08:18:15;;;;;;;9.87;6.10;;;-0.50;99.90;;;;;;5075234;28;20197;-65
2023/01/18 08:20:45;;;;;;;14.03;7.00;;;-0.40;99.90;;;;;;5073577;28;20509;-64
2023/01/18 08:23:11;;;;;;;10.17;7.27;;;-0.50;99.90;;;;;;5072334;28;20199;-64
2023/01/18 08:25:38;;;;;;;11.23;6.97;;;-0.50;99.90;;;;;;5030598;28;20232;-65
2023/01/18 08:28:06;;;;;;;9.30;6.43;;;-0.70;99.90;;;;;;5054602;28;20202;-65
2023/01/18 08:30:35;;;;;;;9.07;6.30;;;-0.50;99.90;;;;;;5061248;28;20205;-65
2023/01/18 08:33:03;;;;;;;9.27;6.53;;;-0.60;99.90;;;;;;5056626;28;20205;-65
2023/01/18 08:35:33;;;;;;;11.23;7.03;;;-0.50;99.90;;;;;;5069401;28;20251;-64
2023/01/18 08:38:02;;;;;;;12.93;7.13;;;-0.50;99.90;;;;;;5061308;28;20295;-65
2023/01/18 08:40:29;;;;;;;9.43;6.43;;;-0.50;99.90;;;;;;5059164;28;20192;-65
2023/01/18 08:42:57;;;;;;;9.40;6.57;;;-0.50;99.90;;;;;;5037446;28;20208;-65
2023/01/18 08:45:24;;;;;;;10.30;6.20;;;-0.50;99.90;;;;;;5069950;28;20266;-64
2023/01/18 08:47:56;;;;;;;8.73;6.80;;;-0.40;99.90;;;;;;5036869;28;20212;-65
2023/01/18 08:50:23;;;;;;;9.10;6.90;;;-0.40;99.90;;;;;;5067307;28;20202;-65
2023/01/18 08:52:51;;;;;;;12.03;7.00;;;-0.50;99.90;;;;;;5065580;28;20219;-65
2023/01/18 08:55:20;;;;;;;9.67;6.37;;;-0.40;99.90;;;;;;5069194;28;20327;-65
2023/01/18 08:57:47;;;;;;;11.60;7.30;;;-0.30;99.90;;;;;;5035363;28;20209;-65
2023/01/18 09:00:15;;;;;;;10.47;7.07;;;-0.40;99.90;;;;;;5070077;28;20462;-65
2023/01/18 09:02:43;;;;;;;11.27;7.40;;;-0.30;99.90;;;;;;5048893;28;20220;-65
2023/01/18 09:05:10;;;;;;;10.30;6.80;;;-0.20;99.90;;;;;;5065476;28;20221;-65
2023/01/18 09:07:36;;;;;;;9.53;6.73;;;-0.20;99.90;;;;;;5071043;28;20201;-65
2023/01/18 09:10:04;;;;;;;12.40;6.70;;;-0.20;99.90;;;;;;5072154;28;20203;-65
2023/01/18 09:12:33;;;;;;;10.63;7.40;;;-0.10;99.90;;;;;;5039456;28;20214;-65
2023/01/18 09:15:00;;;;;;;11.07;7.40;;;-0.10;99.90;;;;;;5071168;28;20987;-65
2023/01/18 09:17:27;;;;;;;10.27;7.67;;;0.00;99.90;;;;;;5068606;28;20198;-65
2023/01/18 09:19:54;;;;;;;17.27;8.23;;;-0.10;99.90;;;;;;5056167;28;20930;-65
2023/01/18 09:22:20;;;;;;;25.87;9.73;;;0.00;99.90;;;;;;5071907;28;20571;-65
2023/01/18 09:24:47;;;;;;;16.57;7.80;;;0.00;99.90;;;;;;5064038;28;20874;-65
2023/01/18 09:27:14;;;;;;;11.67;7.80;;;0.00;99.90;;;;;;5070244;28;20210;-65
2023/01/18 09:29:42;;;;;;;12.73;8.07;;;0.00;99.90;;;;;;5037551;28;20211;-65
2023/01/18 09:32:09;;;;;;;11.27;7.47;;;0.00;99.90;;;;;;5065870;28;20199;-65
2023/01/18 09:34:36;;;;;;;9.83;7.07;;;0.10;99.90;;;;;;5060349;28;20235;-65
2023/01/18 09:37:03;;;;;;;11.33;7.40;;;0.10;99.90;;;;;;5068169;28;20207;-65
2023/01/18 09:39:30;;;;;;;10.20;7.13;;;0.10;99.90;;;;;;5065131;28;20197;-65
2023/01/18 09:41:59;;;;;;;13.13;7.10;;;0.40;99.90;;;;;;5056621;28;20212;-65
2023/01/18 09:44:30;;;;;;;11.27;7.20;;;0.20;99.90;;;;;;5038141;28;20207;-65
2023/01/18 09:47:04;;;;;;;15.87;8.10;;;0.20;99.90;;;;;;5047435;28;20212;-65
2023/01/18 09:49:37;;;;;;;10.57;7.07;;;0.30;99.90;;;;;;5064659;28;20199;-65
2023/01/18 09:52:24;;;;;;;14.00;7.17;;;0.30;99.90;;;;;;5059587;28;20211;-65
2023/01/18 09:54:56;;;;;;;12.13;7.13;;;0.30;99.90;;;;;;5068001;28;20242;-65
2023/01/18 09:57:36;;;;;;;13.33;7.20;;;0.30;99.90;;;;;;5065775;28;20208;-65
2023/01/18 10:00:14;;;;;;;11.83;7.87;;;0.40;99.90;;;;;;5038878;28;20214;-65
2023/01/18 10:02:52;;;;;;;11.30;7.83;;;0.50;99.90;;;;;;5073285;28;20205;-65
2023/01/18 10:05:22;;;;;;;11.90;7.83;;;0.50;99.90;;;;;;5073201;28;20580;-65
2023/01/18 10:08:02;;;;;;;9.97;7.17;;;0.50;99.90;;;;;;5055172;28;20200;-65
2023/01/18 10:10:33;;;;;;;11.23;7.70;;;0.60;99.90;;;;;;5061976;28;20203;-65
2023/01/18 10:13:14;;;;;;;13.77;7.83;;;0.60;99.90;;;;;;5067343;28;20215;-65
2023/01/18 10:15:42;;;;;;;11.10;7.40;;;0.60;99.90;;;;;;5051022;28;20224;-65
2023/01/18 10:18:11;;;;;;;12.10;7.43;;;0.70;99.90;;;;;;5060229;28;20272;-65
2023/01/18 10:20:46;;;;;;;12.47;7.47;;;0.70;99.90;;;;;;5070925;28;20211;-65
2023/01/18 10:23:17;;;;;;;9.70;6.93;;;0.80;99.90;;;;;;5056408;28;20217;-65
2023/01/18 10:25:51;;;;;;;10.73;7.27;;;0.80;99.90;;;;;;5066571;28;20248;-65
2023/01/18 10:28:32;;;;;;;13.83;7.80;;;0.90;99.90;;;;;;5071270;28;21235;-65
2023/01/18 10:31:11;;;;;;;19.17;8.07;;;0.90;99.90;;;;;;5037788;28;20686;-65
2023/01/18 10:33:41;;;;;;;10.27;6.90;;;0.90;99.90;;;;;;5069385;28;20210;-65
2023/01/18 10:36:13;;;;;;;12.00;7.60;;;0.90;99.90;;;;;;5070483;28;20226;-65
2023/01/18 10:38:41;;;;;;;11.40;6.93;;;0.90;99.90;;;;;;5060247;28;20197;-65
2023/01/18 10:41:18;;;;;;;12.07;7.37;;;1.00;99.90;;;;;;5067861;28;20201;-65
2023/01/18 10:43:45;;;;;;;10.90;7.00;;;1.00;99.90;;;;;;5064332;28;20198;-65
2023/01/18 10:46:15;;;;;;;9.57;6.63;;;1.10;99.90;;;;;;5067206;28;20197;-65
2023/01/18 10:48:46;;;;;;;12.33;7.03;;;1.10;99.90;;;;;;5027961;28;20229;-65
2023/01/18 10:51:25;;;;;;;12.00;7.53;;;1.20;99.90;;;;;;5069812;28;21413;-65
2023/01/18 10:53:52;;;;;;;14.87;6.77;;;1.20;99.90;;;;;;5052841;28;20217;-65
2023/01/18 10:56:23;;;;;;;11.17;7.33;;;1.20;99.90;;;;;;5073305;28;20221;-65
2023/01/18 10:58:56;;;;;;;12.37;7.80;;;1.30;99.90;;;;;;5067145;28;20201;-66
2023/01/18 11:01:26;;;;;;;18.57;6.87;;;1.30;99.90;;;;;;5070689;28;20197;-65
2023/01/18 11:03:56;;;;;;;9.57;6.90;;;1.30;99.90;;;;;;5037389;28;20202;-66
2023/01/18 11:06:25;;;;;;;9.83;7.27;;;1.40;99.90;;;;;;5073038;28;20212;-66
2023/01/18 11:08:52;;;;;;;12.80;7.33;;;1.40;99.90;;;;;;5057419;28;20314;-65
2023/01/18 11:12:32;;;;;;;11.33;6.97;;;1.50;99.90;;;;;;5068160;28;20204;-65
2023/01/18 11:14:25;;;;;;;13.93;6.80;;;1.50;99.90;;;;;;5065341;28;20286;-65
2023/01/18 11:16:59;;;;;;;9.37;6.40;;;1.50;99.90;;;;;;5069741;28;20202;-65
2023/01/18 11:19:27;;;;;;;9.53;6.40;;;1.60;99.90;;;;;;5036846;28;20707;-65
2023/01/18 11:21:55;;;;;;;9.80;6.83;;;1.60;99.90;;;;;;5067503;28;20777;-65
2023/01/18 11:24:26;;;;;;;8.80;6.63;;;1.70;99.90;;;;;;5047854;28;20206;-65
2023/01/18 11:26:56;;;;;;;8.80;6.27;;;1.70;99.90;;;;;;5062481;28;20227;-65
2023/01/18 11:29:26;;;;;;;11.10;6.63;;;1.80;99.90;;;;;;5072460;28;20218;-66
2023/01/18 11:31:54;;;;;;;10.17;5.97;;;1.80;99.90;;;;;;5068246;28;20203;-65
2023/01/18 11:34:26;;;;;;;9.27;6.57;;;1.90;99.90;;;;;;5007883;28;20225;-66
2023/01/18 11:36:55;;;;;;;9.50;5.97;;;1.90;99.90;;;;;;5071913;28;20948;-65
2023/01/18 11:39:28;;;;;;;16.03;6.90;;;1.90;99.90;;;;;;5062118;28;20979;-65
2023/01/18 11:42:12;;;;;;;10.60;6.37;;;2.00;99.90;;;;;;5074313;28;20787;-66
2023/01/18 11:44:46;;;;;;;11.80;6.23;;;2.00;99.90;;;;;;5070583;28;20623;-66
2023/01/18 11:47:20;;;;;;;11.70;6.50;;;2.10;99.90;;;;;;5069847;28;20693;-65
2023/01/18 11:49:54;;;;;;;14.97;8.07;;;2.10;99.90;;;;;;5038923;28;20241;-66
2023/01/18 11:52:36;;;;;;;14.00;7.70;;;2.20;99.90;;;;;;5071493;28;20198;-66
2023/01/18 11:55:06;;;;;;;13.40;6.97;;;2.20;99.90;;;;;;5062308;28;20784;-66
2023/01/18 11:57:33;;;;;;;12.40;7.47;;;2.30;99.90;;;;;;5072672;28;20206;-65
2023/01/18 12:00:00;;;;;;;10.97;6.23;;;2.30;99.90;;;;;;5073982;28;20201;-65
2023/01/18 12:02:54;;;;;;;9.70;5.87;;;2.40;99.90;;;;;;5076116;28;20209;-66
2023/01/18 12:05:37;;;;;;;9.00;5.80;;;2.40;99.90;;;;;;5016843;28;20210;-66
2023/01/18 12:08:23;;;;;;;8.20;6.17;;;2.50;99.90;;;;;;5023621;28;20872;-66
2023/01/18 12:10:59;;;;;;;9.87;6.10;;;2.50;99.90;;;;;;5059955;28;20207;-66
2023/01/18 12:13:35;;;;;;;8.57;5.13;;;2.60;99.90;;;;;;5075715;28;20195;-66
2023/01/18 12:16:12;;;;;;;8.53;5.77;;;2.60;99.90;;;;;;5065860;28;20245;-65
2023/01/18 12:19:15;;;;;;;7.57;5.20;;;2.60;99.90;;;;;;5070745;28;20272;-65
2023/01/18 12:21:55;;;;;;;6.40;5.03;;;2.60;99.90;;;;;;5038289;28;20286;-65
2023/01/18 12:24:43;;;;;;;7.50;4.80;;;2.70;99.90;;;;;;5059407;28;20211;-66
2023/01/18 12:27:20;;;;;;;9.23;5.27;;;2.70;99.90;;;;;;5038968;28;21445;-66
2023/01/18 12:30:10;;;;;;;8.80;5.60;;;2.70;99.90;;;;;;5070693;28;20205;-66
2023/01/18 12:33:05;;;;;;;6.80;4.80;;;2.70;99.90;;;;;;5069884;28;20205;-66
2023/01/18 12:35:59;;;;;;;7.47;4.90;;;2.70;99.90;;;;;;5033323;28;20236;-66
2023/01/18 12:38:28;;;;;;;8.47;4.50;;;2.80;99.90;;;;;;5028201;28;20223;-66
2023/01/18 12:41:38;;;;;;;7.40;4.90;;;2.80;99.90;;;;;;5056811;28;20210;-67
2023/01/18 12:44:39;;;;;;;8.67;5.17;;;2.80;99.90;;;;;;5069337;28;20203;-66
2023/01/18 12:47:16;;;;;;;8.27;5.17;;;2.80;99.90;;;;;;5035775;28;20658;-66
2023/01/18 12:49:46;;;;;;;8.37;4.70;;;2.80;99.90;;;;;;5069756;28;20767;-66
2023/01/18 12:52:17;;;;;;;8.20;5.07;;;2.90;99.90;;;;;;4973905;28;20242;-66
2023/01/18 12:54:47;;;;;;;7.27;4.60;;;2.80;99.90;;;;;;5060620;28;20268;-66
2023/01/18 12:57:16;;;;;;;10.33;4.90;;;2.80;99.90;;;;;;5017236;28;20200;-66
2023/01/18 13:00:05;;;;;;;7.10;5.03;;;2.80;99.90;;;;;;5031179;28;20607;-66
2023/01/18 13:02:34;;;;;;;7.33;4.97;;;2.90;99.90;;;;;;4986891;28;20232;-66
2023/01/18 13:05:05;;;;;;;6.97;5.10;;;2.90;99.90;;;;;;5011927;28;20224;-66
2023/01/18 13:07:37;;;;;;;7.77;5.23;;;2.90;99.90;;;;;;4983599;28;20229;-66
2023/01/18 13:10:07;;;;;;;6.80;4.77;;;2.90;99.90;;;;;;5008777;28;20235;-66
2023/01/18 13:12:35;;;;;;;7.10;4.93;;;2.90;99.90;;;;;;5010485;28;20199;-67
2023/01/18 13:15:07;;;;;;;10.83;5.87;;;3.00;99.90;;;;;;5008294;28;20619;-66
2023/01/18 13:17:40;;;;;;;7.57;5.30;;;2.90;99.90;;;;;;5018850;28;20201;-66
2023/01/18 13:20:15;;;;;;;6.97;4.77;;;3.00;99.90;;;;;;5026167;28;20725;-67
2023/01/18 13:22:51;;;;;;;10.10;5.10;;;3.00;99.90;;;;;;5034956;28;20203;-66
2023/01/18 13:25:28;;;;;;;7.63;4.80;;;3.00;99.90;;;;;;5018213;28;20974;-67
2023/01/18 13:28:02;;;;;;;7.83;4.60;;;3.00;99.90;;;;;;5052560;28;20855;-67
2023/01/18 13:30:31;;;;;;;8.37;4.67;;;3.00;99.90;;;;;;5067850;28;20196;-66
2023/01/18 13:32:59;;;;;;;7.77;4.80;;;3.00;99.90;;;;;;5043939;28;20204;-67
2023/01/18 13:35:32;;;;;;;10.83;4.77;;;3.00;99.90;;;;;;5050089;28;20227;-66
2023/01/18 13:38:00;;;;;;;5.83;4.47;;;3.10;99.90;;;;;;5011967;28;20223;-67
2023/01/18 13:40:37;;;;;;;9.03;4.30;;;3.10;99.90;;;;;;5043383;28;20259;-67